createdAt,value
2018-04-23T00:01:48.925Z,0.30
2018-04-23T00:04:16.475Z,0.30
2018-04-23T00:06:44.049Z,0.33
2018-04-23T00:09:11.611Z,0.30
2018-04-23T00:11:39.163Z,0.40
2018-04-23T00:14:06.715Z,0.30
2018-04-23T00:16:34.268Z,0.40
2018-04-23T00:19:01.844Z,0.40
2018-04-23T00:21:29.391Z,0.30
2018-04-23T00:23:56.943Z,0.30
2018-04-23T00:26:24.564Z,0.40
2018-04-23T00:28:52.112Z,0.40
2018-04-23T00:31:19.692Z,0.40
2018-04-23T00:33:47.252Z,0.30
2018-04-23T00:36:14.804Z,0.30
2018-04-23T00:38:42.353Z,0.33
2018-04-23T00:41:10.666Z,0.40
2018-04-23T00:43:38.255Z,0.20
2018-04-23T00:46:05.805Z,0.40
2018-04-23T00:48:33.357Z,0.50
2018-04-23T00:51:00.904Z,0.37
2018-04-23T00:53:39.120Z,0.40
2018-04-23T00:56:06.695Z,0.40
2018-04-23T00:58:34.244Z,0.37
2018-04-23T01:01:01.803Z,0.50
2018-04-23T01:03:29.353Z,0.40
2018-04-23T01:05:56.912Z,0.40
2018-04-23T01:08:24.488Z,0.40
2018-04-23T01:10:52.032Z,0.40
2018-04-23T01:13:19.590Z,0.63
2018-04-23T01:15:47.146Z,0.50
2018-04-23T01:18:14.695Z,0.30
2018-04-23T01:20:42.268Z,0.40
2018-04-23T01:23:09.823Z,0.30
2018-04-23T01:25:37.384Z,0.43
2018-04-23T01:28:04.932Z,0.30
2018-04-23T01:30:32.552Z,0.30
2018-04-23T01:33:00.126Z,0.30
2018-04-23T01:35:27.674Z,0.30
2018-04-23T01:37:55.216Z,0.30
2018-04-23T01:40:23.528Z,0.40
2018-04-23T01:42:51.078Z,0.50
2018-04-23T01:45:18.644Z,0.30
2018-04-23T01:47:46.198Z,0.40
2018-04-23T01:50:13.741Z,0.20
2018-04-23T01:52:41.290Z,0.40
2018-04-23T01:55:08.840Z,0.20
2018-04-23T01:57:37.196Z,0.30
2018-04-23T02:00:04.740Z,0.30
2018-04-23T02:02:32.300Z,0.40
2018-04-23T02:04:59.859Z,0.47
2018-04-23T02:07:27.408Z,0.30
2018-04-23T02:09:54.984Z,0.40
2018-04-23T02:12:22.532Z,0.27
2018-04-23T02:14:50.080Z,0.33
2018-04-23T02:17:17.640Z,0.30
2018-04-23T02:19:45.192Z,0.40
2018-04-23T02:22:12.756Z,0.47
2018-04-23T02:24:40.303Z,0.30
2018-04-23T02:27:07.858Z,0.40
2018-04-23T02:29:35.421Z,0.20
2018-04-23T02:32:02.976Z,0.30
2018-04-23T02:34:30.552Z,0.40
2018-04-23T02:36:58.108Z,0.30
2018-04-23T02:39:25.660Z,0.30
2018-04-23T02:41:53.212Z,0.20
2018-04-23T02:44:20.768Z,0.50
2018-04-23T02:46:48.341Z,0.20
2018-04-23T02:49:15.896Z,0.30
2018-04-23T02:51:43.454Z,0.20
2018-04-23T02:54:11.016Z,0.20
2018-04-23T02:56:38.565Z,0.30
2018-04-23T02:59:06.143Z,0.30
2018-04-23T03:01:33.688Z,0.50
2018-04-23T03:04:01.244Z,0.40
2018-04-23T03:06:28.801Z,0.20
2018-04-23T03:08:56.355Z,0.27
2018-04-23T03:11:25.425Z,0.50
2018-04-23T03:13:52.981Z,0.30
2018-04-23T03:16:20.539Z,0.30
2018-04-23T03:18:48.104Z,0.20
2018-04-23T03:21:15.658Z,0.20
2018-04-23T03:23:43.236Z,0.20
2018-04-23T03:26:10.780Z,0.30
2018-04-23T03:28:38.324Z,0.27
2018-04-23T03:31:05.872Z,0.20
2018-04-23T03:33:33.422Z,0.10
2018-04-23T03:36:01.000Z,0.20
2018-04-23T03:38:28.551Z,0.20
2018-04-23T03:40:56.208Z,0.20
2018-04-23T03:43:23.753Z,0.40
2018-04-23T03:45:51.300Z,0.13
2018-04-23T03:48:18.880Z,0.20
2018-04-23T03:50:46.435Z,0.10
2018-04-23T03:53:13.992Z,0.10
2018-04-23T03:55:41.547Z,0.20
2018-04-23T03:58:09.096Z,0.20
2018-04-23T04:00:36.668Z,0.23
2018-04-23T04:03:04.216Z,0.10
2018-04-23T04:05:31.765Z,0.20
2018-04-23T04:07:59.316Z,0.10
2018-04-23T04:10:26.865Z,0.10
2018-04-23T04:13:06.925Z,0.30
2018-04-23T04:15:46.967Z,0.20
2018-04-23T04:18:35.849Z,0.20
2018-04-23T04:21:03.397Z,0.20
2018-04-23T04:23:30.968Z,0.20
2018-04-23T04:25:58.525Z,0.63
2018-04-23T04:28:26.900Z,0.40
2018-04-23T04:30:54.445Z,0.10
2018-04-23T04:33:22.756Z,0.10
2018-04-23T04:35:50.326Z,0.47
2018-04-23T04:38:17.888Z,0.27
2018-04-23T04:40:45.503Z,0.20
2018-04-23T04:43:13.056Z,0.10
2018-04-23T04:45:40.620Z,0.20
2018-04-23T04:48:08.193Z,0.10
2018-04-23T04:50:35.754Z,0.20
2018-04-23T04:53:04.068Z,0.10
2018-04-23T04:55:31.620Z,0.13
2018-04-23T04:57:59.166Z,0.10
2018-04-23T05:00:26.739Z,0.13
2018-04-23T05:02:54.296Z,0.10
2018-04-23T05:05:21.848Z,0.23
2018-04-23T05:07:50.207Z,0.32
2018-04-23T05:10:17.766Z,0.20
2018-04-23T05:12:45.328Z,0.10
2018-04-23T05:15:13.648Z,0.10
2018-04-23T05:17:41.197Z,0.10
2018-04-23T05:20:08.736Z,0.20
2018-04-23T05:22:36.280Z,0.30
2018-04-23T05:25:03.856Z,0.40
2018-04-23T05:27:31.413Z,0.20
2018-04-23T05:29:59.012Z,0.20
2018-04-23T05:32:26.532Z,0.30
2018-04-23T05:34:55.590Z,0.20
2018-04-23T05:37:23.360Z,0.40
2018-04-23T05:39:50.905Z,0.40
2018-04-23T05:42:18.456Z,0.20
2018-04-23T05:44:46.000Z,0.20
2018-04-23T05:47:13.543Z,0.30
2018-04-23T05:49:41.892Z,0.20
2018-04-23T05:52:09.465Z,0.30
2018-04-23T05:54:37.060Z,0.20
2018-04-23T05:57:04.609Z,0.20
2018-04-23T05:59:32.156Z,0.20
2018-04-23T06:02:00.660Z,0.20
2018-04-23T06:04:28.209Z,0.30
2018-04-23T06:06:55.764Z,0.10
2018-04-23T06:09:23.304Z,0.33
2018-04-23T06:11:50.857Z,0.33
2018-04-23T06:14:19.286Z,0.20
2018-04-23T06:16:46.804Z,0.30
2018-04-23T06:19:14.348Z,0.33
2018-04-23T06:21:41.901Z,0.20
2018-04-23T06:24:10.226Z,0.30
2018-04-23T06:26:37.800Z,0.20
2018-04-23T06:29:05.349Z,0.20
2018-04-23T06:31:32.898Z,0.30
2018-04-23T06:34:00.448Z,0.20
2018-04-23T06:36:28.016Z,0.40
2018-04-23T06:38:55.596Z,0.20
2018-04-23T06:41:23.152Z,0.30
2018-04-23T06:43:50.718Z,0.20
2018-04-23T06:46:18.309Z,0.30
2018-04-23T06:48:46.622Z,0.43
2018-04-23T06:51:14.193Z,0.30
2018-04-23T06:53:41.748Z,0.40
2018-04-23T06:56:09.296Z,0.30
2018-04-23T06:58:37.038Z,0.30
2018-04-23T07:01:04.594Z,0.30
2018-04-23T07:03:32.153Z,0.20
2018-04-23T07:05:59.699Z,0.30
2018-04-23T07:08:28.015Z,0.17
2018-04-23T07:10:55.566Z,0.30
2018-04-23T07:13:23.111Z,0.30
2018-04-23T07:15:50.689Z,0.20
2018-04-23T07:18:18.397Z,0.20
2018-04-23T07:20:45.951Z,0.20
2018-04-23T07:23:13.505Z,0.30
2018-04-23T07:25:41.827Z,0.30
2018-04-23T07:28:09.408Z,0.30
2018-04-23T07:30:36.955Z,0.30
2018-04-23T07:33:04.500Z,0.40
2018-04-23T07:35:32.044Z,0.20
2018-04-23T07:37:59.593Z,0.20
2018-04-23T07:40:27.928Z,0.30
2018-04-23T07:42:55.485Z,0.30
2018-04-23T07:45:23.032Z,0.47
2018-04-23T07:47:50.621Z,0.40
2018-04-23T07:50:18.180Z,0.30
2018-04-23T07:52:45.729Z,0.40
2018-04-23T07:55:13.272Z,0.40
2018-04-23T07:57:40.848Z,0.60
2018-04-23T08:00:10.090Z,0.30
2018-04-23T08:02:37.667Z,0.30
2018-04-23T08:05:05.214Z,0.60
2018-04-23T08:07:32.760Z,0.40
2018-04-23T08:10:00.310Z,0.40
2018-04-23T08:12:27.892Z,0.30
2018-04-23T08:14:55.471Z,0.40
2018-04-23T08:17:23.016Z,0.30
2018-04-23T08:19:50.584Z,0.40
2018-04-23T08:22:18.132Z,0.30
2018-04-23T08:24:45.684Z,0.50
2018-04-23T08:27:13.275Z,0.70
2018-04-23T08:29:40.836Z,0.43
2018-04-23T08:32:08.384Z,0.30
2018-04-23T08:34:35.931Z,0.20
2018-04-23T08:37:03.488Z,0.30
2018-04-23T08:39:31.076Z,0.40
2018-04-23T08:41:58.632Z,0.40
2018-04-23T08:44:26.196Z,0.30
2018-04-23T08:46:53.745Z,0.33
2018-04-23T08:49:21.292Z,0.40
2018-04-23T08:51:48.909Z,0.50
2018-04-23T08:54:16.480Z,0.30
2018-04-23T08:56:44.040Z,0.30
2018-04-23T08:59:11.594Z,0.20
2018-04-23T09:01:39.150Z,0.40
2018-04-23T09:04:06.741Z,0.30
2018-04-23T09:06:34.304Z,0.87
2018-04-23T09:09:01.860Z,0.40
2018-04-23T09:11:29.414Z,0.30
2018-04-23T09:13:56.972Z,0.40
2018-04-23T09:16:24.548Z,0.53
2018-04-23T09:18:52.136Z,0.50
2018-04-23T09:21:19.692Z,0.40
2018-04-23T09:23:47.248Z,0.30
2018-04-23T09:26:14.806Z,0.23
2018-04-23T09:28:42.381Z,0.30
2018-04-23T09:31:10.216Z,0.40
2018-04-23T09:33:38.537Z,0.30
2018-04-23T09:36:06.088Z,0.30
2018-04-23T09:38:33.649Z,0.40
2018-04-23T09:41:01.224Z,0.50
2018-04-23T09:43:28.775Z,0.20
2018-04-23T09:45:56.324Z,0.30
2018-04-23T09:48:23.911Z,0.20
2018-04-23T09:50:51.460Z,0.33
2018-04-23T09:53:19.048Z,0.30
2018-04-23T09:55:47.370Z,0.47
2018-04-23T09:58:14.920Z,0.20
2018-04-23T10:00:43.099Z,0.30
2018-04-23T10:03:11.482Z,0.37
2018-04-23T10:05:39.076Z,0.30
2018-04-23T10:08:07.415Z,0.40
2018-04-23T10:10:34.973Z,0.30
2018-04-23T10:13:02.536Z,0.27
2018-04-23T10:15:30.104Z,0.30
2018-04-23T10:17:57.686Z,0.40
2018-04-23T10:20:25.233Z,0.30
2018-04-23T10:22:52.784Z,0.50
2018-04-23T10:25:20.336Z,0.30
2018-04-23T10:27:47.892Z,0.30
2018-04-23T10:30:15.464Z,0.20
2018-04-23T10:32:43.012Z,0.50
2018-04-23T10:35:10.569Z,0.30
2018-04-23T10:37:38.144Z,0.30
2018-04-23T10:40:05.702Z,0.40
2018-04-23T10:42:33.252Z,0.20
2018-04-23T10:45:00.811Z,0.30
2018-04-23T10:47:28.366Z,0.50
2018-04-23T10:49:55.927Z,0.40
2018-04-23T10:52:23.506Z,0.40
2018-04-23T10:54:51.831Z,0.30
2018-04-23T10:57:19.385Z,0.40
2018-04-23T10:59:46.933Z,0.30
2018-04-23T11:02:14.479Z,0.30
2018-04-23T11:04:42.056Z,0.20
2018-04-23T11:07:09.604Z,0.23
2018-04-23T11:09:37.190Z,0.20
2018-04-23T11:12:04.727Z,0.27
2018-04-23T11:14:32.271Z,0.30
2018-04-23T11:16:59.840Z,0.40
2018-04-23T11:19:27.396Z,0.33
2018-04-23T11:21:54.943Z,0.30
2018-04-23T11:24:22.493Z,0.40
2018-04-23T11:26:50.040Z,0.30
2018-04-23T11:29:18.380Z,0.20
2018-04-23T11:31:45.928Z,0.30
2018-04-23T11:34:13.472Z,0.20
2018-04-23T11:36:41.016Z,0.40
2018-04-23T11:39:08.561Z,0.30
2018-04-23T11:41:36.136Z,0.40
2018-04-23T11:44:03.684Z,0.33
2018-04-23T11:46:31.235Z,0.30
2018-04-23T11:48:58.787Z,0.30
2018-04-23T11:51:26.335Z,0.33
2018-04-23T11:53:53.903Z,0.50
2018-04-23T11:56:22.208Z,0.40
2018-04-23T11:58:49.752Z,0.40
2018-04-23T12:01:17.348Z,0.30
2018-04-23T12:03:44.896Z,0.40
2018-04-23T12:06:12.460Z,0.47
2018-04-23T12:08:40.005Z,0.30
2018-04-23T12:11:07.547Z,0.60
2018-04-23T12:13:35.097Z,0.40
2018-04-23T12:16:02.647Z,0.40
2018-04-23T12:18:30.224Z,0.53
2018-04-23T12:20:57.779Z,0.40
2018-04-23T12:23:25.343Z,0.40
2018-04-23T12:25:52.904Z,0.40
2018-04-23T12:28:20.461Z,0.40
2018-04-23T12:30:48.035Z,0.40
2018-04-23T12:33:16.358Z,0.40
2018-04-23T12:35:44.678Z,0.53
2018-04-23T12:38:12.235Z,0.60
2018-04-23T12:40:39.789Z,0.60
2018-04-23T12:43:08.123Z,0.77
2018-04-23T12:45:35.676Z,0.40
2018-04-23T12:48:04.004Z,0.30
2018-04-23T12:50:31.553Z,0.43
2018-04-23T12:52:59.104Z,0.40
2018-04-23T12:55:26.679Z,0.70
2018-04-23T12:57:55.399Z,0.47
2018-04-23T13:00:22.944Z,0.40
2018-04-23T13:02:50.504Z,0.50
2018-04-23T13:05:18.992Z,0.30
2018-04-23T13:07:46.556Z,0.23
2018-04-23T13:10:14.100Z,0.50
2018-04-23T13:12:41.647Z,0.50
2018-04-23T13:15:09.192Z,0.53
2018-04-23T13:17:36.738Z,0.57
2018-04-23T13:20:04.325Z,0.40
2018-04-23T13:22:31.881Z,0.40
2018-04-23T13:24:59.433Z,0.40
2018-04-23T13:27:27.009Z,0.40
2018-04-23T13:29:54.556Z,0.50
2018-04-23T13:32:22.140Z,0.63
2018-04-23T13:34:49.684Z,0.53
2018-04-23T13:37:17.292Z,0.50
2018-04-23T13:39:44.839Z,0.60
2018-04-23T13:42:12.392Z,0.37
2018-04-23T13:44:39.961Z,0.50
2018-04-23T13:47:07.509Z,0.70
2018-04-23T13:49:35.065Z,0.47
2018-04-23T13:52:02.611Z,0.50
2018-04-23T13:54:30.921Z,0.60
2018-04-23T13:56:58.482Z,0.50
2018-04-23T13:59:26.025Z,0.70
2018-04-23T14:01:53.568Z,0.60
2018-04-23T14:04:21.112Z,0.80
2018-04-23T14:06:49.424Z,0.50
2018-04-23T14:09:18.011Z,0.77
2018-04-23T14:11:45.560Z,0.73
2018-04-23T14:14:13.108Z,0.63
2018-04-23T14:16:40.657Z,1.03
2018-04-23T14:19:08.212Z,1.00
2018-04-23T14:21:35.784Z,1.00
2018-04-23T14:24:03.365Z,1.00
2018-04-23T14:26:30.909Z,0.73
2018-04-23T14:28:58.452Z,1.00
2018-04-23T14:31:26.009Z,1.00
2018-04-23T14:33:53.585Z,1.17
2018-04-23T14:36:21.140Z,0.97
2018-04-23T14:38:48.688Z,1.00
2018-04-23T14:41:16.280Z,1.10
2018-04-23T14:43:43.832Z,1.07
2018-04-23T14:46:11.403Z,0.80
2018-04-23T14:48:38.952Z,1.13
2018-04-23T14:51:06.500Z,1.10
2018-04-23T14:53:34.048Z,1.00
2018-04-23T14:56:01.592Z,1.20
2018-04-23T14:58:29.198Z,1.23
2018-04-23T15:00:56.816Z,1.30
2018-04-23T15:03:24.360Z,1.43
2018-04-23T15:05:52.676Z,1.30
2018-04-23T15:08:20.223Z,1.57
2018-04-23T15:10:47.797Z,1.17
2018-04-23T15:13:15.340Z,1.63
2018-04-23T15:15:42.900Z,1.30
2018-04-23T15:18:11.378Z,1.40
2018-04-23T15:20:38.924Z,1.17
2018-04-23T15:23:06.494Z,1.27
2018-04-23T15:25:34.044Z,1.50
2018-04-23T15:28:01.625Z,1.50
2018-04-23T15:30:29.174Z,1.50
2018-04-23T15:32:56.722Z,1.23
2018-04-23T15:35:24.294Z,1.40
2018-04-23T15:37:51.844Z,1.60
2018-04-23T15:40:19.394Z,1.50
2018-04-23T15:42:47.968Z,1.53
2018-04-23T15:45:15.524Z,1.50
2018-04-23T15:47:43.084Z,1.53
2018-04-23T15:50:10.628Z,1.43
2018-04-23T15:52:38.180Z,1.17
2018-04-23T15:55:05.727Z,1.13
2018-04-23T15:57:34.443Z,1.17
2018-04-23T16:00:02.015Z,1.57
2018-04-23T16:02:29.568Z,1.20
2018-04-23T16:04:57.160Z,1.20
2018-04-23T16:07:24.708Z,1.57
2018-04-23T16:09:52.283Z,1.37
2018-04-23T16:12:19.856Z,1.40
2018-04-23T16:14:48.176Z,1.40
2018-04-23T16:17:15.739Z,1.43
2018-04-23T16:19:43.300Z,1.60
2018-04-23T16:22:10.890Z,1.70
2018-04-23T16:24:38.481Z,1.70
2018-04-23T16:27:06.036Z,1.60
2018-04-23T16:29:33.595Z,1.80
2018-04-23T16:32:01.925Z,1.93
2018-04-23T16:34:29.483Z,2.43
2018-04-23T16:36:57.092Z,2.70
2018-04-23T16:39:24.648Z,2.13
2018-04-23T16:41:52.196Z,2.13
2018-04-23T16:44:19.750Z,2.43
2018-04-23T16:46:47.296Z,2.47
2018-04-23T16:49:14.867Z,3.00
2018-04-23T16:51:42.413Z,2.63
2018-04-23T16:54:09.959Z,4.33
2018-04-23T16:56:37.538Z,4.27
2018-04-23T16:59:05.084Z,4.03
2018-04-23T17:01:32.669Z,3.80
2018-04-23T17:04:00.238Z,3.33
2018-04-23T17:06:27.793Z,3.50
2018-04-23T17:08:55.344Z,3.60
2018-04-23T17:11:22.911Z,3.80
2018-04-23T17:13:50.487Z,3.50
2018-04-23T17:16:18.801Z,3.40
2018-04-23T17:18:46.357Z,3.77
2018-04-23T17:21:13.909Z,3.90
2018-04-23T17:23:41.491Z,4.23
2018-04-23T17:26:09.312Z,4.23
2018-04-23T17:28:36.854Z,4.07
2018-04-23T17:31:04.404Z,4.60
2018-04-23T17:33:31.960Z,4.27
2018-04-23T17:35:59.514Z,4.30
2018-04-23T17:38:27.095Z,3.40
2018-04-23T17:40:54.656Z,4.50
2018-04-23T17:43:22.220Z,4.83
2018-04-23T17:45:49.768Z,4.50
2018-04-23T17:48:17.328Z,4.70
2018-04-23T17:50:44.911Z,5.20
2018-04-23T17:53:12.460Z,5.40
2018-04-23T17:55:40.016Z,4.63
2018-04-23T17:58:07.564Z,4.50
2018-04-23T18:00:35.116Z,4.67
2018-04-23T18:03:02.689Z,5.20
2018-04-23T18:05:30.242Z,5.07
2018-04-23T18:07:57.813Z,5.43
2018-04-23T18:10:25.368Z,4.93
2018-04-23T18:12:52.921Z,5.23
2018-04-23T18:15:20.492Z,5.43
2018-04-23T18:17:49.560Z,5.50
2018-04-23T18:20:17.142Z,5.30
2018-04-23T18:22:44.699Z,5.63
2018-04-23T18:25:12.252Z,5.80
2018-04-23T18:27:39.828Z,5.70
2018-04-23T18:30:08.157Z,6.37
2018-04-23T18:32:35.714Z,6.10
2018-04-23T18:35:03.278Z,6.70
2018-04-23T18:37:30.845Z,5.90
2018-04-23T18:39:58.422Z,6.10
2018-04-23T18:42:25.972Z,7.13
2018-04-23T18:44:53.532Z,6.77
2018-04-23T18:47:21.088Z,6.40
2018-04-23T18:49:48.664Z,8.23
2018-04-23T18:52:16.252Z,6.90
2018-04-23T18:54:44.568Z,8.00
2018-04-23T18:57:12.125Z,6.97
2018-04-23T18:59:39.676Z,5.57
2018-04-23T19:02:08.001Z,6.27
2018-04-23T19:04:35.584Z,6.73
2018-04-23T19:07:03.152Z,6.27
2018-04-23T19:09:30.707Z,6.90
2018-04-23T19:11:58.265Z,6.43
2018-04-23T19:14:25.831Z,6.37
2018-04-23T19:16:54.179Z,6.87
2018-04-23T19:19:21.732Z,6.47
2018-04-23T19:21:49.311Z,6.40
2018-04-23T19:24:17.033Z,7.83
2018-04-23T19:26:44.584Z,7.87
2018-04-23T19:29:12.159Z,7.03
2018-04-23T19:31:39.746Z,7.73
2018-04-23T19:34:08.068Z,7.03
2018-04-23T19:36:35.629Z,6.80
2018-04-23T19:39:03.175Z,7.13
2018-04-23T19:41:30.759Z,7.70
2018-04-23T19:43:58.310Z,7.37
2018-04-23T19:46:25.875Z,7.23
2018-04-23T19:48:53.432Z,7.70
2018-04-23T19:51:20.979Z,8.00
2018-04-23T19:53:48.568Z,8.73
2018-04-23T19:56:16.126Z,8.37
2018-04-23T19:58:44.445Z,8.67
2018-04-23T20:01:11.996Z,8.33
2018-04-23T20:03:39.543Z,8.23
2018-04-23T20:06:07.140Z,8.10
2018-04-23T20:08:34.707Z,9.00
2018-04-23T20:11:02.270Z,8.97
2018-04-23T20:13:29.837Z,8.67
2018-04-23T20:15:57.392Z,8.40
2018-04-23T20:18:24.972Z,8.50
2018-04-23T20:20:52.524Z,8.57
2018-04-23T20:23:20.907Z,8.10
2018-04-23T20:25:48.440Z,8.03
2018-04-23T20:28:16.017Z,8.13
2018-04-23T20:30:43.599Z,7.73
2018-04-23T20:33:11.163Z,8.00
2018-04-23T20:35:38.720Z,8.30
2018-04-23T20:38:06.279Z,7.07
2018-04-23T20:40:33.828Z,7.77
2018-04-23T20:43:01.407Z,7.00
2018-04-23T20:45:28.970Z,7.90
2018-04-23T20:47:56.612Z,8.20
2018-04-23T20:50:24.180Z,7.50
2018-04-23T20:52:51.832Z,8.17
2018-04-23T20:55:19.409Z,8.17
2018-04-23T20:57:46.966Z,7.90
2018-04-23T21:00:14.524Z,8.03
2018-04-23T21:02:42.072Z,9.03
2018-04-23T21:05:09.630Z,7.80
2018-04-23T21:07:37.212Z,8.20
2018-04-23T21:10:04.770Z,7.70
2018-04-23T21:12:32.526Z,7.53
2018-04-23T21:15:00.077Z,7.83
2018-04-23T21:17:27.625Z,7.93
2018-04-23T21:19:55.217Z,7.10
2018-04-23T21:22:22.830Z,7.37
2018-04-23T21:24:50.370Z,7.00
2018-04-23T21:27:18.684Z,7.07
2018-04-23T21:29:46.241Z,6.57
2018-04-23T21:32:13.816Z,7.43
2018-04-23T21:34:41.372Z,7.33
2018-04-23T21:37:08.920Z,7.23
2018-04-23T21:39:36.473Z,6.63
2018-04-23T21:42:04.028Z,5.90
2018-04-23T21:44:31.605Z,6.07
2018-04-23T21:46:59.155Z,5.80
2018-04-23T21:49:27.471Z,5.73
2018-04-23T21:51:55.034Z,6.20
2018-04-23T21:54:22.606Z,6.53
2018-04-23T21:56:50.628Z,6.00
2018-04-23T21:59:18.180Z,5.93
2018-04-23T22:01:46.430Z,6.33
2018-04-23T22:04:13.986Z,6.33
2018-04-23T22:06:41.536Z,6.43
2018-04-23T22:09:09.108Z,6.37
2018-04-23T22:11:36.666Z,5.60
2018-04-23T22:14:04.221Z,6.80
2018-04-23T22:16:31.768Z,6.37
2018-04-23T22:18:59.317Z,6.73
2018-04-23T22:21:26.909Z,6.37
2018-04-23T22:23:54.462Z,6.63
2018-04-23T22:26:22.020Z,6.30
2018-04-23T22:28:49.603Z,6.57
2018-04-23T22:31:17.186Z,7.53
2018-04-23T22:33:45.515Z,6.67
2018-04-23T22:36:13.084Z,6.13
2018-04-23T22:38:41.210Z,6.47
2018-04-23T22:41:08.761Z,6.53
2018-04-23T22:43:36.314Z,7.17
2018-04-23T22:46:04.644Z,7.30
2018-04-23T22:48:32.188Z,6.30
2018-04-23T22:50:59.737Z,6.67
2018-04-23T22:53:27.293Z,6.40
2018-04-23T22:55:54.864Z,5.87
2018-04-23T22:58:22.427Z,6.20
2018-04-23T23:00:49.989Z,5.60
2018-04-23T23:03:18.112Z,4.93
2018-04-23T23:05:46.439Z,5.80
2018-04-23T23:08:14.013Z,5.10
2018-04-23T23:10:41.626Z,4.87
2018-04-23T23:13:09.172Z,4.20
2018-04-23T23:15:36.721Z,4.37
2018-04-23T23:18:04.272Z,4.07
2018-04-23T23:20:31.840Z,4.07
2018-04-23T23:22:59.391Z,4.53
2018-04-23T23:25:26.948Z,4.23
2018-04-23T23:27:54.501Z,4.67
2018-04-23T23:30:22.820Z,4.57
2018-04-23T23:32:50.391Z,4.87
2018-04-23T23:35:17.973Z,4.30
2018-04-23T23:37:45.527Z,4.10
2018-04-23T23:40:13.089Z,4.73
2018-04-23T23:42:40.647Z,4.43
2018-04-23T23:45:08.187Z,4.23
2018-04-23T23:47:35.765Z,4.07
2018-04-23T23:50:03.321Z,4.33
2018-04-23T23:52:30.879Z,4.20
2018-04-23T23:54:58.424Z,4.73
2018-04-23T23:57:25.968Z,5.10
2018-04-23T23:59:53.543Z,4.80
